createdAt,value
2022-12-08T00:01:16.850Z,3.90
2022-12-08T00:03:44.434Z,4.00
2022-12-08T00:06:48.936Z,3.30
2022-12-08T00:09:22.194Z,3.00
2022-12-08T00:11:50.213Z,3.00
2022-12-08T00:14:17.241Z,3.40
2022-12-08T00:16:44.566Z,3.80
2022-12-08T00:19:11.674Z,3.40
2022-12-08T00:21:38.696Z,3.10
2022-12-08T00:24:06.057Z,2.60
2022-12-08T00:26:33.101Z,3.30
2022-12-08T00:29:01.258Z,3.10
2022-12-08T00:31:28.471Z,3.20
2022-12-08T00:33:55.527Z,2.80
2022-12-08T00:36:22.620Z,3.40
2022-12-08T00:38:49.668Z,3.20
2022-12-08T00:41:45.085Z,3.20
2022-12-08T00:44:16.122Z,3.30
2022-12-08T00:46:43.445Z,2.90
2022-12-08T00:49:10.578Z,3.00
2022-12-08T00:51:38.110Z,2.60
2022-12-08T00:54:05.916Z,2.90
2022-12-08T00:56:33.234Z,3.40
2022-12-08T00:59:00.998Z,3.30
2022-12-08T01:01:28.376Z,2.80
2022-12-08T01:03:55.571Z,2.60
2022-12-08T01:06:22.690Z,2.90
2022-12-08T01:08:49.642Z,3.00
2022-12-08T01:11:19.941Z,3.00
2022-12-08T01:13:47.384Z,2.90
2022-12-08T01:16:27.071Z,2.50
2022-12-08T01:18:54.460Z,2.90
2022-12-08T01:21:22.228Z,2.90
2022-12-08T01:23:49.238Z,2.80
2022-12-08T01:26:18.541Z,2.70
2022-12-08T01:28:46.534Z,2.90
2022-12-08T01:31:17.661Z,2.70
2022-12-08T01:33:45.141Z,3.10
2022-12-08T01:36:23.816Z,2.70
2022-12-08T01:38:51.417Z,2.50
2022-12-08T01:41:21.538Z,2.70
2022-12-08T01:44:02.207Z,3.00
2022-12-08T01:46:31.592Z,2.60
2022-12-08T01:49:09.407Z,2.90
2022-12-08T01:51:42.814Z,2.80
2022-12-08T01:54:11.803Z,2.40
2022-12-08T01:56:54.206Z,2.60
2022-12-08T01:59:22.594Z,2.30
2022-12-08T02:01:51.900Z,2.50
2022-12-08T02:04:19.147Z,2.50
2022-12-08T02:06:49.157Z,2.40
2022-12-08T02:09:16.926Z,2.50
2022-12-08T02:11:43.860Z,2.60
2022-12-08T02:14:12.958Z,2.80
2022-12-08T02:16:40.970Z,2.60
2022-12-08T02:19:36.955Z,2.40
2022-12-08T02:22:18.243Z,2.40
2022-12-08T02:24:58.241Z,2.30
2022-12-08T02:27:35.783Z,2.10
2022-12-08T02:30:13.996Z,2.20
2022-12-08T02:32:55.787Z,2.60
2022-12-08T02:35:36.963Z,3.80
2022-12-08T02:38:15.896Z,2.30
2022-12-08T02:40:49.974Z,2.20
2022-12-08T02:43:50.850Z,2.10
2022-12-08T02:46:31.540Z,1.90
2022-12-08T02:49:00.440Z,2.00
2022-12-08T02:51:27.463Z,2.30
2022-12-08T02:53:55.260Z,2.20
2022-12-08T02:56:39.583Z,2.20
2022-12-08T02:59:36.100Z,2.40
2022-12-08T03:02:30.085Z,2.40
2022-12-08T03:05:26.840Z,2.20
2022-12-08T03:08:00.918Z,2.00
2022-12-08T03:10:41.025Z,2.10
2022-12-08T03:13:23.675Z,2.20
2022-12-08T03:15:53.011Z,2.00
2022-12-08T03:18:24.989Z,2.30
2022-12-08T03:20:52.467Z,2.30
2022-12-08T03:23:22.223Z,1.90
2022-12-08T03:25:58.308Z,2.30
2022-12-08T03:28:25.978Z,2.10
2022-12-08T03:30:58.317Z,1.90
2022-12-08T03:33:30.652Z,2.60
2022-12-08T03:36:00.021Z,2.60
2022-12-08T03:38:27.060Z,2.30
2022-12-08T03:41:12.948Z,2.50
2022-12-08T03:43:39.999Z,2.50
2022-12-08T03:46:06.997Z,2.00
2022-12-08T03:48:33.966Z,2.30
2022-12-08T03:51:00.945Z,2.50
2022-12-08T03:53:27.880Z,2.20
2022-12-08T03:55:55.031Z,2.20
2022-12-08T03:58:21.988Z,2.30
2022-12-08T04:00:49.023Z,2.10
2022-12-08T04:03:16.170Z,1.80
2022-12-08T04:05:43.528Z,1.90
2022-12-08T04:08:10.561Z,2.10
2022-12-08T04:10:37.698Z,1.90
2022-12-08T04:13:04.593Z,2.30
2022-12-08T04:15:31.620Z,2.20
2022-12-08T04:17:58.674Z,3.60
2022-12-08T04:20:25.576Z,1.90
2022-12-08T04:22:52.564Z,1.80
2022-12-08T04:25:19.811Z,2.20
2022-12-08T04:27:46.802Z,1.80
2022-12-08T04:30:14.013Z,2.00
2022-12-08T04:32:45.886Z,2.80
2022-12-08T04:35:14.495Z,1.70
2022-12-08T04:37:41.983Z,1.90
2022-12-08T04:40:09.333Z,2.30
2022-12-08T04:42:36.791Z,1.80
2022-12-08T04:45:04.706Z,1.80
2022-12-08T04:47:31.639Z,2.40
2022-12-08T04:49:58.595Z,1.80
2022-12-08T04:52:25.581Z,1.70
2022-12-08T04:54:52.589Z,1.90
2022-12-08T04:57:19.806Z,2.20
2022-12-08T04:59:46.882Z,1.60
2022-12-08T05:02:14.057Z,1.80
2022-12-08T05:04:41.179Z,2.10
2022-12-08T05:07:08.228Z,1.80
2022-12-08T05:09:35.252Z,1.70
2022-12-08T05:12:02.332Z,1.60
2022-12-08T05:14:29.268Z,1.60
2022-12-08T05:16:56.334Z,2.10
2022-12-08T05:19:23.574Z,1.80
2022-12-08T05:21:50.514Z,1.90
2022-12-08T05:24:17.568Z,1.90
2022-12-08T05:26:44.612Z,1.70
2022-12-08T05:29:11.656Z,1.70
2022-12-08T05:31:38.769Z,1.70
2022-12-08T05:34:05.972Z,1.40
2022-12-08T05:36:33.210Z,1.50
2022-12-08T05:39:00.441Z,2.00
2022-12-08T05:41:27.420Z,1.70
2022-12-08T05:43:54.458Z,1.80
2022-12-08T05:46:21.560Z,2.10
2022-12-08T05:48:48.659Z,1.80
2022-12-08T05:51:21.537Z,1.70
2022-12-08T05:53:50.029Z,1.80
2022-12-08T05:56:18.222Z,1.50
2022-12-08T05:58:45.766Z,1.90
2022-12-08T06:01:27.856Z,1.70
2022-12-08T06:03:55.755Z,1.60
2022-12-08T06:06:22.694Z,1.70
2022-12-08T06:08:49.923Z,1.70
2022-12-08T06:11:21.785Z,1.70
2022-12-08T06:13:49.670Z,1.80
2022-12-08T06:16:17.725Z,1.80
2022-12-08T06:18:45.625Z,1.80
2022-12-08T06:21:14.583Z,1.40
2022-12-08T06:23:42.440Z,1.50
2022-12-08T06:26:12.155Z,2.00
2022-12-08T06:28:40.225Z,1.80
2022-12-08T06:31:22.003Z,1.90
2022-12-08T06:33:49.783Z,1.80
2022-12-08T06:36:19.688Z,1.90
2022-12-08T06:38:46.947Z,1.50
2022-12-08T06:41:15.917Z,1.70
2022-12-08T06:43:43.825Z,1.70
2022-12-08T06:46:15.012Z,1.60
2022-12-08T06:48:42.522Z,1.50
2022-12-08T06:51:11.609Z,1.50
2022-12-08T06:53:39.450Z,1.80
2022-12-08T06:56:07.210Z,1.70
2022-12-08T06:58:35.661Z,1.90
2022-12-08T07:01:13.453Z,2.00
2022-12-08T07:03:41.996Z,1.70
2022-12-08T07:06:14.171Z,1.80
2022-12-08T07:08:41.142Z,1.70
2022-12-08T07:11:16.552Z,1.90
2022-12-08T07:13:46.732Z,1.50
2022-12-08T07:16:13.970Z,1.60
2022-12-08T07:18:42.728Z,1.60
2022-12-08T07:21:11.738Z,1.60
2022-12-08T07:23:38.915Z,1.50
2022-12-08T07:26:08.516Z,2.00
2022-12-08T07:28:38.056Z,1.60
2022-12-08T07:31:06.943Z,1.80
2022-12-08T07:33:35.258Z,1.70
2022-12-08T07:36:05.398Z,1.70
2022-12-08T07:38:32.587Z,1.60
2022-12-08T07:40:59.876Z,1.40
2022-12-08T07:43:27.236Z,1.60
2022-12-08T07:45:54.353Z,1.70
2022-12-08T07:48:21.387Z,1.70
2022-12-08T07:50:48.487Z,1.50
2022-12-08T07:53:15.627Z,1.70
2022-12-08T07:55:43.800Z,1.50
2022-12-08T07:58:11.626Z,1.60
2022-12-08T08:00:39.002Z,2.20
2022-12-08T08:03:06.532Z,1.60
2022-12-08T08:05:33.530Z,1.30
2022-12-08T08:08:00.628Z,1.60
2022-12-08T08:10:27.816Z,1.50
2022-12-08T08:12:55.086Z,1.80
2022-12-08T08:15:22.310Z,1.70
2022-12-08T08:17:53.681Z,1.80
2022-12-08T08:20:21.451Z,1.50
2022-12-08T08:22:49.903Z,1.90
2022-12-08T08:25:18.206Z,1.70
2022-12-08T08:27:45.971Z,1.90
2022-12-08T08:30:20.097Z,3.00
2022-12-08T08:32:48.273Z,5.80
2022-12-08T08:35:15.495Z,9.60
2022-12-08T08:37:48.364Z,15.30
2022-12-08T08:40:16.723Z,20.10
2022-12-08T08:42:43.723Z,25.50
2022-12-08T08:45:11.488Z,28.90
2022-12-08T08:47:38.470Z,33.60
2022-12-08T08:50:06.330Z,35.40
2022-12-08T08:52:33.508Z,37.40
2022-12-08T08:55:00.515Z,38.40
2022-12-08T08:57:27.593Z,40.10
2022-12-08T08:59:54.687Z,39.10
2022-12-08T09:02:22.013Z,40.30
2022-12-08T09:04:49.250Z,40.90
2022-12-08T09:07:17.023Z,41.50
2022-12-08T09:09:44.092Z,39.70
2022-12-08T09:12:11.549Z,41.30
2022-12-08T09:14:38.850Z,40.70
2022-12-08T09:17:11.561Z,40.50
2022-12-08T09:19:38.555Z,39.20
2022-12-08T09:22:06.240Z,42.60
2022-12-08T09:24:33.185Z,41.70
2022-12-08T09:27:00.394Z,40.20
2022-12-08T09:29:32.555Z,41.60
2022-12-08T09:32:02.555Z,40.60
2022-12-08T09:34:29.747Z,40.60
2022-12-08T09:36:56.797Z,39.50
2022-12-08T09:39:23.981Z,39.70
2022-12-08T09:41:58.784Z,40.00
2022-12-08T09:44:54.935Z,39.00
2022-12-08T09:47:33.729Z,38.30
2022-12-08T09:50:14.363Z,36.90
2022-12-08T09:52:45.813Z,37.20
2022-12-08T09:55:21.294Z,36.30
2022-12-08T09:57:58.072Z,35.70
2022-12-08T10:00:25.357Z,35.20
2022-12-08T10:02:52.583Z,35.40
2022-12-08T10:05:19.849Z,34.40
2022-12-08T10:08:08.573Z,34.80
2022-12-08T10:10:43.195Z,30.20
2022-12-08T10:13:33.488Z,32.20
2022-12-08T10:16:29.540Z,32.10
2022-12-08T10:19:22.022Z,32.40
2022-12-08T10:21:50.422Z,33.00
2022-12-08T10:24:32.857Z,31.70
2022-12-08T10:27:01.648Z,31.70
2022-12-08T10:29:29.542Z,31.70
2022-12-08T10:31:59.918Z,30.20
2022-12-08T10:34:27.115Z,31.40
2022-12-08T10:36:56.902Z,30.30
2022-12-08T10:39:37.708Z,30.00
2022-12-08T10:42:09.535Z,30.20
2022-12-08T10:45:08.777Z,29.80
2022-12-08T10:47:42.492Z,28.50
2022-12-08T10:50:35.153Z,29.40
2022-12-08T10:53:02.078Z,28.90
2022-12-08T10:55:39.456Z,29.90
2022-12-08T10:58:06.501Z,28.40
2022-12-08T11:00:34.721Z,28.30
2022-12-08T11:03:05.683Z,27.80
2022-12-08T11:05:35.900Z,27.20
2022-12-08T11:08:05.080Z,26.80
2022-12-08T11:10:42.991Z,26.80
2022-12-08T11:13:26.414Z,26.20
2022-12-08T11:15:57.390Z,26.40
2022-12-08T11:18:45.028Z,25.00
2022-12-08T11:21:15.802Z,23.40
2022-12-08T11:23:47.945Z,24.50
2022-12-08T11:26:32.628Z,22.80
2022-12-08T11:28:59.717Z,21.70
2022-12-08T11:31:34.824Z,21.90
2022-12-08T11:34:03.423Z,20.70
2022-12-08T11:36:35.536Z,21.00
2022-12-08T11:39:07.783Z,20.70
2022-12-08T11:41:41.678Z,20.50
2022-12-08T11:44:08.564Z,18.60
2022-12-08T11:46:50.277Z,18.00
2022-12-08T11:49:18.293Z,18.20
2022-12-08T11:51:54.245Z,17.20
2022-12-08T11:54:31.128Z,17.30
2022-12-08T11:57:00.938Z,16.80
2022-12-08T11:59:39.741Z,16.80
2022-12-08T12:02:15.116Z,15.20
2022-12-08T12:04:45.979Z,15.10
2022-12-08T12:07:26.208Z,15.10
2022-12-08T12:10:03.737Z,14.70
2022-12-08T12:12:48.743Z,14.70
2022-12-08T12:15:58.590Z,13.90
2022-12-08T12:19:00.710Z,13.50
2022-12-08T12:21:31.723Z,12.60
2022-12-08T12:24:27.535Z,12.60
2022-12-08T12:27:16.420Z,12.30
2022-12-08T12:29:55.772Z,11.90
2022-12-08T12:32:24.938Z,12.70
2022-12-08T12:35:00.400Z,11.90
2022-12-08T12:37:42.928Z,11.30
2022-12-08T12:40:22.719Z,11.80
2022-12-08T12:42:55.776Z,11.70
2022-12-08T12:45:27.777Z,11.80
2022-12-08T12:48:00.593Z,11.50
2022-12-08T12:50:33.889Z,11.70
2022-12-08T12:53:10.596Z,11.70
2022-12-08T12:55:56.344Z,12.30
2022-12-08T12:58:30.033Z,12.00
2022-12-08T13:01:15.434Z,11.50
2022-12-08T13:03:50.053Z,12.50
2022-12-08T13:06:33.871Z,12.10
2022-12-08T13:09:01.107Z,11.80
2022-12-08T13:11:28.287Z,11.70
2022-12-08T13:14:01.640Z,11.00
2022-12-08T13:16:33.548Z,13.10
2022-12-08T13:19:04.320Z,12.80
2022-12-08T13:21:37.964Z,13.30
2022-12-08T13:24:13.733Z,14.20
2022-12-08T13:27:10.963Z,18.10
2022-12-08T13:29:39.279Z,20.00
2022-12-08T13:32:09.901Z,20.80
2022-12-08T13:34:46.070Z,19.40
2022-12-08T13:37:16.324Z,19.70
2022-12-08T13:39:59.198Z,19.60
2022-12-08T13:42:50.617Z,19.80
2022-12-08T13:46:31.904Z,19.20
2022-12-08T13:49:09.603Z,19.10
2022-12-08T13:57:12.189Z,18.70
2022-12-08T13:59:44.894Z,18.70
2022-12-08T14:02:29.009Z,17.80
2022-12-08T14:07:45.087Z,16.90
2022-12-08T14:10:32.347Z,18.10
2022-12-08T14:13:07.012Z,17.80
2022-12-08T14:15:38.429Z,17.60
2022-12-08T14:18:07.195Z,17.50
2022-12-08T14:20:57.659Z,17.00
2022-12-08T14:23:22.652Z,17.00
2022-12-08T14:25:49.854Z,16.70
2022-12-08T14:28:17.042Z,15.60
2022-12-08T14:30:44.483Z,16.50
2022-12-08T14:33:17.028Z,16.30
2022-12-08T14:35:51.586Z,15.40
2022-12-08T14:38:20.972Z,14.50
2022-12-08T14:40:50.191Z,15.10
2022-12-08T14:43:26.344Z,15.50
2022-12-08T14:46:20.857Z,14.50
2022-12-08T14:48:48.123Z,13.50
2022-12-08T14:51:21.476Z,14.10
2022-12-08T14:54:12.306Z,13.70
2022-12-08T14:56:52.328Z,13.80
2022-12-08T14:59:35.440Z,13.20
2022-12-08T15:02:14.606Z,14.00
2022-12-08T15:04:47.808Z,13.30
2022-12-08T15:07:16.305Z,13.70
2022-12-08T15:09:50.325Z,13.50
2022-12-08T15:12:27.165Z,12.70
2022-12-08T15:15:22.477Z,13.20
2022-12-08T15:17:51.941Z,13.20
2022-12-08T15:20:41.003Z,12.80
2022-12-08T15:23:21.506Z,12.60
2022-12-08T15:25:49.411Z,12.70
2022-12-08T15:28:21.264Z,13.30
2022-12-08T15:30:51.065Z,12.80
2022-12-08T15:33:18.229Z,12.90
2022-12-08T15:35:45.441Z,12.10
2022-12-08T15:38:27.246Z,12.70
2022-12-08T15:40:55.568Z,11.80
2022-12-08T15:43:22.856Z,11.80
2022-12-08T15:45:59.172Z,12.00
2022-12-08T15:48:29.072Z,11.70
2022-12-08T15:50:56.843Z,11.60
2022-12-08T15:53:23.895Z,11.20
2022-12-08T15:56:19.078Z,11.40
2022-12-08T15:58:53.606Z,11.00
2022-12-08T16:01:22.068Z,10.70
2022-12-08T16:09:39.606Z,10.50
2022-12-08T16:13:06.958Z,10.40
2022-12-08T16:15:50.154Z,10.00
2022-12-08T16:18:14.122Z,9.50
2022-12-08T16:21:07.482Z,9.90
2022-12-08T16:23:42.217Z,9.20
2022-12-08T16:29:16.703Z,9.80
2022-12-08T16:31:43.704Z,9.20
2022-12-08T16:34:10.971Z,9.10
2022-12-08T16:36:39.194Z,9.30
2022-12-08T16:39:06.618Z,9.90
2022-12-08T16:41:52.278Z,9.00
2022-12-08T16:44:20.037Z,8.60
2022-12-08T16:46:51.888Z,8.90
2022-12-08T16:49:22.413Z,8.90
2022-12-08T16:51:49.327Z,8.90
2022-12-08T16:54:16.316Z,8.60
2022-12-08T16:56:43.217Z,9.20
2022-12-08T16:59:10.315Z,8.20
2022-12-08T17:01:37.513Z,8.60
2022-12-08T17:06:54.107Z,8.50
2022-12-08T17:09:21.161Z,8.20
2022-12-08T17:11:48.152Z,7.50
2022-12-08T17:14:15.639Z,8.30
2022-12-08T17:16:43.478Z,8.00
2022-12-08T17:19:13.563Z,8.20
2022-12-08T17:21:40.643Z,7.10
2022-12-08T17:24:07.895Z,7.60
2022-12-08T17:26:35.566Z,8.00
2022-12-08T17:29:04.071Z,7.70
2022-12-08T17:31:32.760Z,7.60
2022-12-08T17:34:02.112Z,7.10
2022-12-08T17:36:29.353Z,7.30
2022-12-08T17:38:58.625Z,7.30
2022-12-08T17:41:25.565Z,7.00
2022-12-08T17:43:52.511Z,7.60
2022-12-08T17:46:21.110Z,7.30
2022-12-08T17:48:48.208Z,6.70
2022-12-08T17:51:15.506Z,7.10
2022-12-08T17:53:43.039Z,6.40
2022-12-08T17:56:20.231Z,7.20
2022-12-08T17:58:54.051Z,6.80
2022-12-08T18:01:22.466Z,6.40
2022-12-08T18:03:49.920Z,6.60
2022-12-08T18:06:17.906Z,6.70
2022-12-08T18:08:45.525Z,6.50
2022-12-08T18:11:21.001Z,7.00
2022-12-08T18:13:51.627Z,6.60
2022-12-08T18:16:21.103Z,7.30
2022-12-08T18:18:48.548Z,6.70
2022-12-08T18:21:21.558Z,6.20
2022-12-08T18:23:50.840Z,5.90
2022-12-08T18:26:18.022Z,6.00
2022-12-08T18:28:45.043Z,6.40
2022-12-08T18:31:15.297Z,5.80
2022-12-08T18:33:44.471Z,6.40
2022-12-08T18:36:15.118Z,6.00
2022-12-08T18:38:42.438Z,5.60
2022-12-08T18:41:17.102Z,6.10
2022-12-08T18:43:44.312Z,5.60
2022-12-08T18:46:12.805Z,5.80
2022-12-08T18:48:42.587Z,5.20
2022-12-08T18:51:15.361Z,5.70
2022-12-08T18:53:42.894Z,5.50
2022-12-08T18:56:21.929Z,5.50
2022-12-08T18:58:49.017Z,5.70
2022-12-08T19:01:16.319Z,5.60
2022-12-08T19:03:58.499Z,5.80
2022-12-08T19:06:30.569Z,5.90
2022-12-08T19:08:57.980Z,5.60
2022-12-08T19:11:28.062Z,5.50
2022-12-08T19:13:55.848Z,5.50
2022-12-08T19:16:23.328Z,5.80
2022-12-08T19:18:50.501Z,8.90
2022-12-08T19:21:17.630Z,16.30
2022-12-08T19:23:44.736Z,23.30
2022-12-08T19:26:12.511Z,30.20
2022-12-08T19:28:41.204Z,34.00
2022-12-08T19:31:10.232Z,41.10
2022-12-08T19:33:38.392Z,44.00
2022-12-08T19:36:07.459Z,49.50
2022-12-08T19:38:54.426Z,52.70
2022-12-08T19:41:40.324Z,59.10
2022-12-08T19:44:29.588Z,61.70
2022-12-08T19:46:56.765Z,70.10
2022-12-08T19:49:23.878Z,75.30
2022-12-08T19:51:50.981Z,77.00
2022-12-08T19:54:19.539Z,78.70
2022-12-08T19:56:47.898Z,85.50
2022-12-08T19:59:16.633Z,85.70
2022-12-08T20:01:44.636Z,87.90
2022-12-08T20:04:15.497Z,86.10
2022-12-08T20:06:43.118Z,83.60
2022-12-08T20:09:10.664Z,87.20
2022-12-08T20:11:38.303Z,85.50
2022-12-08T20:14:05.812Z,86.50
2022-12-08T20:16:33.274Z,84.50
2022-12-08T20:19:00.499Z,81.40
2022-12-08T20:21:28.033Z,84.10
2022-12-08T20:23:55.093Z,82.50
2022-12-08T20:26:23.905Z,81.30
2022-12-08T20:28:51.597Z,81.90
2022-12-08T20:31:24.691Z,81.60
2022-12-08T20:33:52.481Z,79.10
2022-12-08T20:36:21.270Z,81.10
2022-12-08T20:38:50.324Z,78.40
2022-12-08T20:41:18.314Z,79.80
2022-12-08T20:43:47.169Z,74.80
2022-12-08T20:46:16.761Z,77.20
2022-12-08T20:48:44.944Z,76.50
2022-12-08T20:51:17.124Z,73.90
2022-12-08T20:53:44.405Z,72.40
2022-12-08T20:56:20.274Z,73.30
2022-12-08T20:58:48.370Z,73.40
2022-12-08T21:01:18.687Z,70.30
2022-12-08T21:03:46.996Z,69.90
2022-12-08T21:06:15.465Z,72.50
2022-12-08T21:08:43.075Z,70.70
2022-12-08T21:11:10.671Z,68.70
2022-12-08T21:13:39.076Z,69.90
2022-12-08T21:16:09.390Z,69.80
2022-12-08T21:18:39.677Z,68.20
2022-12-08T21:21:14.429Z,68.40
2022-12-08T21:23:42.730Z,66.20
2022-12-08T21:26:19.013Z,65.60
2022-12-08T21:28:46.658Z,64.40
2022-12-08T21:31:17.012Z,66.20
2022-12-08T21:33:45.196Z,62.00
2022-12-08T21:36:14.636Z,63.50
2022-12-08T21:38:42.973Z,62.60
2022-12-08T21:41:16.576Z,62.90
2022-12-08T21:43:43.766Z,61.60
2022-12-08T21:46:17.487Z,60.40
2022-12-08T21:48:44.962Z,60.90
2022-12-08T21:51:12.236Z,60.80
2022-12-08T21:53:39.309Z,60.20
2022-12-08T21:56:10.143Z,59.20
2022-12-08T21:58:39.857Z,58.30
2022-12-08T22:01:09.044Z,58.60
2022-12-08T22:03:38.333Z,58.40
2022-12-08T22:06:07.529Z,56.60
2022-12-08T22:08:34.867Z,54.70
2022-12-08T22:11:02.857Z,55.70
2022-12-08T22:13:30.337Z,55.70
2022-12-08T22:15:58.938Z,54.50
2022-12-08T22:18:26.294Z,55.70
2022-12-08T22:20:54.041Z,54.70
2022-12-08T22:23:22.104Z,53.10
2022-12-08T22:26:03.063Z,52.80
2022-12-08T22:28:35.472Z,52.60
2022-12-08T22:31:19.654Z,51.90
2022-12-08T22:33:48.887Z,50.20
2022-12-08T22:36:26.583Z,50.40
2022-12-08T22:38:55.273Z,51.60
2022-12-08T22:41:22.832Z,51.30
2022-12-08T22:43:50.904Z,50.20
2022-12-08T22:46:20.757Z,50.30
2022-12-08T22:48:48.688Z,49.20
2022-12-08T22:51:16.217Z,47.20
2022-12-08T22:53:45.022Z,49.60
2022-12-08T22:56:13.554Z,49.20
2022-12-08T22:58:41.900Z,48.50
2022-12-08T23:01:09.482Z,49.60
2022-12-08T23:03:36.498Z,47.70
2022-12-08T23:06:12.537Z,47.30
2022-12-08T23:08:40.687Z,47.10
2022-12-08T23:11:08.158Z,47.10
2022-12-08T23:13:35.244Z,45.90
2022-12-08T23:16:02.456Z,47.30
2022-12-08T23:18:29.648Z,46.20
2022-12-08T23:20:56.678Z,46.00
2022-12-08T23:23:23.912Z,45.00
2022-12-08T23:25:50.949Z,43.00
2022-12-08T23:28:18.146Z,44.40
2022-12-08T23:30:45.687Z,43.50
2022-12-08T23:33:13.361Z,44.40
2022-12-08T23:35:40.521Z,43.90
2022-12-08T23:38:07.614Z,42.70
2022-12-08T23:40:34.703Z,42.30
2022-12-08T23:43:01.747Z,42.70
2022-12-08T23:45:29.005Z,41.50
2022-12-08T23:47:56.142Z,40.50
2022-12-08T23:50:23.103Z,40.80
2022-12-08T23:52:50.055Z,40.50
2022-12-08T23:55:17.073Z,38.20
2022-12-08T23:57:44.194Z,38.20
